Flight Track Log - Related Links

Times and Time Zones

All times are in EDT time to prevent confusion due to time zone crossing. See the DAL1979 flight status page for this flight to view local times or setup timezone preferences in your user account.


Time Position Orientation Groundspeed Altitude Reporting Facility
EDT Latitude Longitude Course Direction KTS MPH feet Rate Location/Type
Thu 04:05:02 PM 28.4490 -81.2970 360° North 182 209 1,000  Level FlightAware ADS-B
Thu 04:05:27 PM 28.4710 -81.3030 347° North 196 226 1,800 1,418 Climbing FlightAware ADS-B
Thu 04:05:57 PM 28.5030 -81.3080 352° North 248 285 2,300 1,527 Climbing FlightAware ADS-B
Thu 04:06:22 PM 28.5300 -81.3130 351° North 260 299 3,200 2,250 Climbing FlightAware ADS-B
Thu 04:06:37 PM 28.5510 -81.3190 346° North 265 305 3,800 2,400 Climbing FlightAware ADS-B
Thu 04:06:52 PM 28.5650 -81.3330 319° Northwest 260 299 4,400 2,600 Climbing FlightAware ADS-B
Thu 04:07:07 PM 28.5710 -81.3510 291° West 265 305 5,100 2,836 Climbing FlightAware ADS-B
Thu 04:07:47 PM 28.5700 -81.4070 269° West 264 304 7,000 2,836 Climbing FlightAware ADS-B
Thu 04:08:02 PM 28.5640 -81.4280 252° West 263 303 7,700 2,533 Climbing FlightAware ADS-B
Thu 04:08:32 PM 28.5480 -81.4650 244° Southwest 268 308 8,900 2,509 Climbing FlightAware ADS-B
Thu 04:08:57 PM 28.5340 -81.4970 244° Southwest 272 313 10,000 2,314 Climbing FlightAware ADS-B
Thu 04:09:42 PM 28.5070 -81.5560 243° Southwest 284 327 11,600 2,188 Climbing FlightAware ADS-B
Thu 04:10:22 PM 28.4940 -81.6130 255° West 285 328 13,100 2,250 Climbing FlightAware ADS-B
Thu 04:11:02 PM 28.4880 -81.6760 264° West 291 335 14,600 2,118 Climbing FlightAware ADS-B
Thu 04:11:47 PM 28.4810 -81.7440 263° West 297 342 16,100 1,906 Climbing FlightAware ADS-B
Thu 04:12:27 PM 28.4760 -81.8080 265° West 307 353 17,300 1,800 Climbing FlightAware ADS-B
Thu 04:13:07 PM 28.4700 -81.8710 264° West 313 360 18,500 1,624 Climbing FlightAware ADS-B
Thu 04:13:52 PM 28.4620 -81.9490 263° West 329 379 19,600 1,129 Climbing FlightAware ADS-B
Thu 04:14:32 PM 28.4560 -82.0140 264° West 353 406 20,100 720 Climbing FlightAware ADS-B
Thu 04:15:07 PM 28.4490 -82.0860 264° West 375 432 20,500 640 Climbing FlightAware ADS-B
Thu 04:15:47 PM 28.4420 -82.1700 265° West 403 464 20,900 646 Climbing FlightAware ADS-B
Thu 04:16:12 PM 28.4490 -82.2240 278° West 414 476 21,200 1,108 Climbing FlightAware ADS-B
Thu 04:16:52 PM 28.4700 -82.3080 286° West 422 486 22,100 1,341 Climbing FlightAware ADS-B
Thu 04:17:37 PM 28.4940 -82.4050 286° West 430 495 23,100 1,271 Climbing FlightAware ADS-B
Thu 04:18:17 PM 28.5420 -82.4760 308° West 438 504 23,900 1,280 Climbing FlightAware ADS-B
Thu 04:18:52 PM 28.6050 -82.5150 331° Northwest 444 511 24,700 1,271 Climbing FlightAware ADS-B
Thu 04:19:42 PM 28.6990 -82.5680 334° Northwest 450 518 25,700 1,200 Climbing FlightAware ADS-B
Thu 04:20:22 PM 28.7740 -82.6110 333° Northwest 454 522 26,500 1,129 Climbing FlightAware ADS-B
Thu 04:21:07 PM 28.8520 -82.6560 333° Northwest 450 518 27,300 988 Climbing FlightAware ADS-B
Thu 04:21:47 PM 28.9260 -82.6980 334° Northwest 453 521 27,900 988 Climbing FlightAware ADS-B
Thu 04:22:32 PM 29.0120 -82.7480 333° Northwest 462 532 28,700 1,200 Climbing FlightAware ADS-B
Thu 04:23:12 PM 29.0940 -82.7950 333° Northwest 459 528 29,600 975 Climbing FlightAware ADS-B
Thu 04:23:52 PM 29.1690 -82.8390 333° Northwest 461 531 30,000 300 Climbing FlightAware ADS-B
Thu 04:24:32 PM 29.2380 -82.8790 333° Northwest 460 529 30,000  Level FlightAware ADS-B
Thu 04:25:17 PM 29.3230 -82.9290 333° Northwest 461 531 30,000  Level FlightAware ADS-B
Thu 04:26:07 PM 29.4170 -82.9840 333° Northwest 451 519 30,000  Level FlightAware ADS-B
Thu 04:26:57 PM 29.4950 -83.0320 332° Northwest 451 519 30,000  Level FlightAware ADS-B
Thu 04:27:37 PM 29.5580 -83.0700 332° Northwest 451 519 30,000  Level FlightAware ADS-B
Thu 04:28:17 PM 29.6200 -83.1090 331° Northwest 451 519 30,000 814 Level FlightAware ADS-B
Thu 04:31:37 PM 30.0120 -83.3370 333° Northwest 33,800 941 Climbing FlightAware ADS-B
Thu 04:32:32 PM 30.1130 -83.3980 332° Northwest 437 503 34,000 126 Climbing FlightAware ADS-B
Thu 04:33:12 PM 30.1730 -83.4350 332° Northwest 437 503 34,000  Level FlightAware ADS-B
Thu 04:33:57 PM 30.2660 -83.4910 333° Northwest 437 503 34,000  Level FlightAware ADS-B
Thu 04:34:37 PM 30.3270 -83.5290 332° Northwest 437 503 34,000  Level FlightAware ADS-B
Thu 04:35:17 PM 30.4150 -83.5820 333° Northwest 34,000  Level FlightAware ADS-B
Thu 04:35:57 PM 30.4910 -83.6280 332° Northwest 441 507 34,000  Level FlightAware ADS-B
Thu 04:36:42 PM 30.5690 -83.6760 332° Northwest 441 507 34,000  Level FlightAware ADS-B
Thu 04:37:17 PM 30.6350 -83.7160 332° Northwest 442 509 34,000  Level FlightAware ADS-B
Thu 04:38:22 PM 30.6750 -83.7410 332° Northwest 443 510 34,000  Level FlightAware ADS-B
Thu 04:39:02 PM 30.8290 -83.8360 332° Northwest 444 511 34,000  Level FlightAware ADS-B
Thu 04:39:47 PM 30.8960 -83.8790 331° Northwest 444 511 34,000  Level FlightAware ADS-B
Thu 04:41:22 PM 30.8800 -83.8690 152° Southeast 444 511 34,000  Level FlightAware ADS-B
Thu 04:42:02 PM 30.9410 -83.9080 331° Northwest 444 511 34,000  Level FlightAware ADS-B
Thu 04:42:42 PM 31.0020 -83.9480 331° Northwest 444 511 34,000  Level FlightAware ADS-B
Thu 04:43:22 PM 31.0640 -83.9870 332° Northwest 444 511 34,000  Level FlightAware ADS-B
Thu 04:44:02 PM 31.1250 -84.0270 331° Northwest 444 511 34,000  Level FlightAware ADS-B
Thu 04:44:32 PM 31.1700 -84.0570 330° Northwest 444 511 34,000  Level FlightAware ADS-B
Thu 04:45:12 PM 31.2320 -84.0960 332° Northwest 444 511 34,000  Level FlightAware ADS-B
Thu 04:46:02 PM 31.3080 -84.1460 331° Northwest 444 511 34,000  Level FlightAware ADS-B
Thu 04:46:42 PM 31.3690 -84.1850 331° Northwest 444 511 34,000  Level FlightAware ADS-B
Thu 04:47:22 PM 31.4300 -84.2250 331° Northwest 444 511 34,000  Level FlightAware ADS-B
Thu 04:48:02 PM 31.4910 -84.2650 331° Northwest 444 511 34,000  Level FlightAware ADS-B
Thu 04:48:42 PM 31.5520 -84.3050 331° Northwest 444 511 34,000  Level FlightAware ADS-B
Thu 04:49:32 PM 31.6290 -84.3540 332° Northwest 444 511 34,000  Level FlightAware ADS-B
Thu 04:50:12 PM 31.6900 -84.3940 331° Northwest 444 511 34,000  Level FlightAware ADS-B
Thu 04:50:52 PM 31.7510 -84.4340 331° Northwest 444 511 34,000  Level FlightAware ADS-B
Thu 04:53:17 PM 32.3840 -84.8170 333° Northwest 444 511 34,000  Level FlightAware ADS-B
Thu 04:53:52 PM 32.4520 -84.8600 332° Northwest 444 511 34,000  Level FlightAware ADS-B
Thu 04:54:42 PM 32.5380 -84.9160 331° Northwest 445 512 34,000  Level FlightAware ADS-B
Thu 04:55:52 PM 32.6510 -84.9910 331° Northwest 446 513 34,000  Level FlightAware ADS-B
Thu 04:56:37 PM 32.7550 -85.0560 332° Northwest 455 524 34,000  Level FlightAware ADS-B
Thu 04:57:17 PM 32.8310 -85.1060 331° Northwest 456 525 34,000  Level FlightAware ADS-B
Thu 04:57:57 PM 32.9060 -85.1550 331° Northwest 456 525 34,000  Level FlightAware ADS-B
Thu 04:58:47 PM 32.9990 -85.2150 332° Northwest 458 527 34,000  Level FlightAware ADS-B
Thu 04:59:32 PM 33.0750 -85.2650 331° Northwest 461 531 34,000  Level FlightAware ADS-B
Thu 05:00:17 PM 33.1660 -85.3240 332° Northwest 461 531 34,000  Level FlightAware ADS-B
Thu 05:01:12 PM 33.2610 -85.3870 331° Northwest 461 531 34,000  Level FlightAware ADS-B
Thu 05:02:12 PM 33.3820 -85.4660 331° Northwest 462 532 34,000  Level FlightAware ADS-B
Thu 05:03:07 PM 33.4800 -85.5310 331° Northwest 462 532 34,000  Level FlightAware ADS-B
Thu 05:03:47 PM 33.5590 -85.5830 331° Northwest 463 533 34,000  Level FlightAware ADS-B
Thu 05:04:22 PM 33.6240 -85.6260 331° Northwest 463 533 34,000  Level FlightAware ADS-B
Thu 05:05:07 PM 33.7090 -85.6820 331° Northwest 464 534 34,000  Level FlightAware ADS-B
Thu 05:05:57 PM 33.7880 -85.7350 331° Northwest 464 534 34,000  Level FlightAware ADS-B
Thu 05:06:37 PM 33.8520 -85.7780 331° Northwest 464 534 34,000  Level FlightAware ADS-B
Thu 05:07:03 PM 33.9358 -85.8330 331° Northwest 461 531 34,000  Level FlightAware ADS-B
Thu 05:07:36 PM 33.9974 -85.8741 331° Northwest 460 529 34,000  Level FlightAware ADS-B
Thu 05:08:07 PM 34.0539 -85.9119 331° Northwest 459 528 34,000  Level FlightAware ADS-B
Thu 05:08:37 PM 34.1102 -85.9495 331° Northwest 459 528 34,000  Level FlightAware ADS-B
Thu 05:09:10 PM 34.1711 -85.9902 331° Northwest 457 526 34,000  Level FlightAware ADS-B
Thu 05:09:43 PM 34.2335 -86.0322 331° Northwest 457 526 34,000  Level FlightAware ADS-B
Thu 05:10:32 PM 34.3233 -86.0925 331° Northwest 456 525 34,000  Level FlightAware ADS-B
Thu 05:11:03 PM 34.3808 -86.1313 331° Northwest 455 524 34,000  Level FlightAware ADS-B
Thu 05:11:42 PM 34.4516 -86.1791 331° Northwest 453 521 34,000  Level FlightAware ADS-B
Thu 05:14:22 PM 34.7390 -86.3730 331° Northwest 450 518 34,000  Level FlightAware ADS-B
Thu 05:15:12 PM 34.8280 -86.4350 330° Northwest 450 518 34,000  Level FlightAware ADS-B
Thu 05:15:52 PM 34.8890 -86.4780 330° Northwest 450 518 34,000  Level FlightAware ADS-B
Thu 05:16:42 PM 34.9650 -86.5320 330° Northwest 450 518 34,000  Level FlightAware ADS-B
Thu 05:16:58 PM 35.0283 -86.5711 333° Northwest 451 519 34,000  Level FlightAware ADS-B
Thu 05:17:28 PM 35.0834 -86.6088 331° Northwest 452 520 34,000  Level FlightAware ADS-B
Thu 05:18:02 PM 35.1410 -86.6480 331° Northwest 453 521 34,000  Level FlightAware ADS-B
Thu 05:18:16 PM 35.1702 -86.6683 330° Northwest 453 521 34,000  Level FlightAware ADS-B
Thu 05:18:47 PM 35.2266 -86.7070 331° Northwest 454 522 34,000  Level FlightAware ADS-B
Thu 05:19:18 PM 35.2834 -86.7462 331° Northwest 454 522 34,000  Level FlightAware ADS-B
Thu 05:19:48 PM 35.3388 -86.7844 331° Northwest 455 524 34,000  Level FlightAware ADS-B
Thu 05:20:18 PM 35.3948 -86.8230 331° Northwest 455 524 34,000  Level FlightAware ADS-B
Thu 05:20:50 PM 35.4533 -86.8634 331° Northwest 456 525 34,000  Level FlightAware ADS-B
Thu 05:21:35 PM 35.5354 -86.9201 331° Northwest 457 526 34,000  Level FlightAware ADS-B
Thu 05:22:05 PM 35.5921 -86.9595 331° Northwest 460 529 34,000  Level FlightAware ADS-B
Thu 05:22:37 PM 35.6509 -87.0006 330° Northwest 461 531 34,000  Level FlightAware ADS-B
Thu 05:23:42 PM 35.7690 -87.0830 330° Northwest 461 531 34,000  Level FlightAware ADS-B
Thu 05:24:22 PM 35.8440 -87.1340 331° Northwest 461 531 34,000  Level FlightAware ADS-B
Thu 05:25:02 PM 35.9190 -87.1870 330° Northwest 460 529 34,000  Level FlightAware ADS-B
Thu 05:25:42 PM 35.9920 -87.2390 330° Northwest 459 528 34,000  Level FlightAware ADS-B
Thu 05:26:27 PM 36.0730 -87.2950 331° Northwest 458 527 34,000  Level FlightAware ADS-B
Thu 05:27:07 PM 36.1460 -87.3470 330° Northwest 457 526 34,000  Level FlightAware ADS-B
Thu 05:27:52 PM 36.2310 -87.4060 331° Northwest 455 524 34,000  Level FlightAware ADS-B
Thu 05:28:32 PM 36.3060 -87.4590 330° Northwest 455 524 34,000  Level FlightAware ADS-B
Thu 05:29:17 PM 36.3870 -87.5170 330° Northwest 456 525 34,000  Level FlightAware ADS-B
Thu 05:29:57 PM 36.4580 -87.5670 330° Northwest 457 526 34,000  Level FlightAware ADS-B
Thu 05:30:42 PM 36.5440 -87.6290 330° Northwest 457 526 34,000  Level FlightAware ADS-B
Thu 05:31:22 PM 36.6140 -87.6890 325° Northwest 458 527 34,000  Level FlightAware ADS-B
Thu 05:32:02 PM 36.6840 -87.7480 326° Northwest 459 528 34,000  Level FlightAware ADS-B
Thu 05:32:47 PM 36.7600 -87.8130 326° Northwest 459 528 34,000  Level FlightAware ADS-B
Thu 05:33:27 PM 36.8260 -87.8800 321° Northwest 458 527 34,000  Level FlightAware ADS-B
Thu 05:34:07 PM 36.8900 -87.9460 320° Northwest 458 527 34,000  Level FlightAware ADS-B
Thu 05:34:47 PM 36.9550 -88.0120 321° Northwest 456 525 34,000  Level FlightAware ADS-B
Thu 05:35:32 PM 37.0310 -88.0940 319° Northwest 454 522 34,000  Level FlightAware ADS-B
Thu 05:36:17 PM 37.1030 -88.1670 321° Northwest 458 527 34,000  Level FlightAware ADS-B
Thu 05:36:57 PM 37.1760 -88.2230 329° Northwest 460 529 34,000  Level FlightAware ADS-B
Thu 05:37:37 PM 37.2400 -88.2720 329° Northwest 460 529 34,000  Level FlightAware ADS-B
Thu 05:38:22 PM 37.3340 -88.3330 333° Northwest 462 532 34,000  Level FlightAware ADS-B
Thu 05:39:02 PM 37.4120 -88.3880 331° Northwest 461 531 34,000  Level FlightAware ADS-B
Thu 05:39:47 PM 37.4930 -88.4450 331° Northwest 462 532 34,000  Level FlightAware ADS-B
Thu 05:40:27 PM 37.5670 -88.4990 330° Northwest 461 531 34,000  Level FlightAware ADS-B
Thu 05:41:12 PM 37.6510 -88.5580 331° Northwest 462 532 34,000  Level FlightAware ADS-B
Thu 05:41:52 PM 37.7280 -88.6130 331° Northwest 463 533 34,000  Level FlightAware ADS-B
Thu 05:42:32 PM 37.8030 -88.6670 330° Northwest 464 534 34,000  Level FlightAware ADS-B
Thu 05:43:17 PM 37.8870 -88.7270 331° Northwest 464 534 34,000  Level FlightAware ADS-B
Thu 05:43:57 PM 37.9610 -88.7810 330° Northwest 465 535 34,000  Level FlightAware ADS-B
Thu 05:44:42 PM 38.0450 -88.8420 330° Northwest 464 534 34,000  Level FlightAware ADS-B
Thu 05:45:22 PM 38.1190 -88.8950 331° Northwest 465 535 34,000  Level FlightAware ADS-B
Thu 05:46:02 PM 38.1930 -88.9490 330° Northwest 466 536 34,000  Level FlightAware ADS-B
Thu 05:46:47 PM 38.2710 -89.0060 330° Northwest 465 535 34,000  Level FlightAware ADS-B
Thu 05:47:27 PM 38.3470 -89.0610 330° Northwest 465 535 34,000  Level FlightAware ADS-B
Thu 05:48:07 PM 38.4240 -89.1180 330° Northwest 466 536 34,000  Level FlightAware ADS-B
Thu 05:48:52 PM 38.4990 -89.1730 330° Northwest 466 536 34,000  Level FlightAware ADS-B
Thu 05:49:32 PM 38.5800 -89.2340 330° Northwest 466 536 34,000  Level FlightAware ADS-B
Thu 05:50:17 PM 38.6680 -89.2980 330° Northwest 464 534 34,000  Level FlightAware ADS-B
Thu 05:50:57 PM 38.7460 -89.3560 330° Northwest 464 534 34,000  Level FlightAware ADS-B
Thu 05:51:47 PM 38.8310 -89.4200 330° Northwest 464 534 34,000  Level FlightAware ADS-B
Thu 05:52:37 PM 38.9100 -89.4810 329° Northwest 464 534 34,000  Level FlightAware ADS-B
Thu 05:53:17 PM 39.0000 -89.5460 331° Northwest 465 535 34,000  Level FlightAware ADS-B
Thu 05:53:52 PM 39.0670 -89.5960 330° Northwest 466 536 34,000  Level FlightAware ADS-B
Thu 05:54:42 PM 39.1600 -89.6660 330° Northwest 467 537 34,000  Level FlightAware ADS-B
Thu 05:55:17 PM 39.2240 -89.7150 329° Northwest 468 539 34,000  Level FlightAware ADS-B
Thu 05:56:02 PM 39.3080 -89.7790 329° Northwest 468 539 34,000  Level FlightAware ADS-B
Thu 05:56:47 PM 39.4000 -89.8490 330° Northwest 469 540 34,000  Level FlightAware ADS-B
Thu 05:57:22 PM 39.4580 -89.8920 330° Northwest 469 540 34,000  Level FlightAware ADS-B
Thu 05:58:07 PM 39.5410 -89.9570 329° Northwest 469 540 34,000  Level FlightAware ADS-B
Thu 05:58:52 PM 39.6290 -90.0240 330° Northwest 470 541 34,000  Level FlightAware ADS-B
Thu 05:59:37 PM 39.7140 -90.0890 330° Northwest 470 541 34,000  Level FlightAware ADS-B
Thu 06:00:17 PM 39.7930 -90.1500 329° Northwest 469 540 34,000  Level FlightAware ADS-B
Thu 06:00:57 PM 39.8630 -90.2050 329° Northwest 468 539 34,000  Level FlightAware ADS-B
Thu 06:01:42 PM 39.9430 -90.2670 329° Northwest 467 537 34,000  Level FlightAware ADS-B
Thu 06:02:22 PM 40.0180 -90.3260 329° Northwest 466 536 34,000  Level FlightAware ADS-B
Thu 06:03:17 PM 40.1260 -90.4110 329° Northwest 464 534 34,000  Level FlightAware ADS-B
Thu 06:04:02 PM 40.2070 -90.4750 329° Northwest 465 535 34,000  Level FlightAware ADS-B
Thu 06:04:42 PM 40.2820 -90.5340 329° Northwest 465 535 34,000  Level FlightAware ADS-B
Thu 06:05:22 PM 40.3480 -90.5870 329° Northwest 465 535 34,000  Level FlightAware ADS-B
Thu 06:06:07 PM 40.4350 -90.6550 329° Northwest 464 534 34,000  Level FlightAware ADS-B
Thu 06:06:47 PM 40.5030 -90.7110 328° Northwest 464 534 34,000  Level FlightAware ADS-B
Thu 06:07:27 PM 40.5840 -90.7740 329° Northwest 466 536 34,000  Level FlightAware ADS-B
Thu 06:08:12 PM 40.6680 -90.8420 328° Northwest 467 537 34,000  Level FlightAware ADS-B
Thu 06:08:52 PM 40.7370 -90.8980 328° Northwest 469 540 34,000  Level FlightAware ADS-B
Thu 06:09:37 PM 40.8210 -90.9650 329° Northwest 469 540 34,000  Level FlightAware ADS-B
Thu 06:10:17 PM 40.8980 -91.0280 328° Northwest 469 540 34,000  Level FlightAware ADS-B
Thu 06:11:02 PM 40.9820 -91.0960 329° Northwest 470 541 34,000  Level FlightAware ADS-B
Thu 06:11:42 PM 41.0550 -91.1560 328° Northwest 471 542 34,000  Level FlightAware ADS-B
Thu 06:12:17 PM 41.1140 -91.2040 328° Northwest 471 542 34,000  Level FlightAware ADS-B
Thu 06:12:57 PM 41.1970 -91.2720 328° Northwest 474 545 34,000  Level FlightAware ADS-B
Thu 06:13:47 PM 41.2860 -91.3450 328° Northwest 474 545 34,000  Level FlightAware ADS-B
Thu 06:14:27 PM 41.3590 -91.4060 328° Northwest 475 547 34,000  Level FlightAware ADS-B
Thu 06:15:12 PM 41.4490 -91.4800 328° Northwest 476 548 34,000  Level FlightAware ADS-B
Thu 06:15:52 PM 41.5120 -91.5330 328° Northwest 476 548 34,000  Level FlightAware ADS-B
Thu 06:16:37 PM 41.6080 -91.6120 328° Northwest 476 548 34,000  Level FlightAware ADS-B
Thu 06:17:17 PM 41.6840 -91.6760 328° Northwest 477 549 34,000  Level FlightAware ADS-B
Thu 06:18:02 PM 41.7680 -91.7460 328° Northwest 478 550 34,000  Level FlightAware ADS-B
Thu 06:18:42 PM 41.8420 -91.8080 328° Northwest 478 550 34,000  Level FlightAware ADS-B
Thu 06:19:27 PM 41.9280 -91.8810 328° Northwest 478 550 34,000  Level FlightAware ADS-B
Thu 06:20:07 PM 42.0030 -91.9440 328° Northwest 478 550 34,000  Level FlightAware ADS-B
Thu 06:20:47 PM 42.0780 -92.0080 328° Northwest 479 551 34,000  Level FlightAware ADS-B
Thu 06:21:32 PM 42.1520 -92.0710 328° Northwest 476 548 34,000  Level FlightAware ADS-B
Thu 06:22:12 PM 42.2350 -92.1410 328° Northwest 471 542 34,000  Level FlightAware ADS-B
Thu 06:22:57 PM 42.3170 -92.2110 328° Northwest 466 536 34,000  Level FlightAware ADS-B
Thu 06:23:37 PM 42.3920 -92.2750 328° Northwest 463 533 34,000  Level FlightAware ADS-B
Thu 06:24:17 PM 42.4630 -92.3370 327° Northwest 461 531 34,000  Level FlightAware ADS-B
Thu 06:25:02 PM 42.5390 -92.4040 327° Northwest 458 527 34,000  Level FlightAware ADS-B
Thu 06:25:42 PM 42.6110 -92.4700 326° Northwest 458 527 34,000  Level FlightAware ADS-B
Thu 06:26:27 PM 42.6940 -92.5440 327° Northwest 460 529 34,000  Level FlightAware ADS-B
Thu 06:27:07 PM 42.7650 -92.6090 326° Northwest 460 529 34,000  Level FlightAware ADS-B
Thu 06:27:47 PM 42.8340 -92.6740 325° Northwest 462 532 34,000  Level FlightAware ADS-B
Thu 06:28:32 PM 42.9120 -92.7470 326° Northwest 463 533 34,000 -494 Level FlightAware ADS-B
Thu 06:29:12 PM 42.9810 -92.8120 325° Northwest 463 533 33,300 -2,175 Descending FlightAware ADS-B
Thu 06:29:52 PM 43.0540 -92.8800 326° Northwest 473 544 31,100 -3,318 Descending FlightAware ADS-B
Thu 06:30:37 PM 43.1460 -92.9430 333° Northwest 481 554 28,600 -3,035 Descending FlightAware ADS-B
Thu 06:31:17 PM 43.2320 -92.9700 347° North 482 555 26,800 -2,118 Descending FlightAware ADS-B
Thu 06:32:02 PM 43.3260 -92.9940 349° North 461 531 25,600 -1,553 Descending FlightAware ADS-B
Thu 06:32:42 PM 43.4090 -93.0170 349° North 448 516 24,600 -1,350 Descending FlightAware ADS-B
Thu 06:33:22 PM 43.4900 -93.0380 349° North 431 496 23,800 -1,200 Descending FlightAware ADS-B
Thu 06:34:07 PM 43.5780 -93.0620 349° North 427 491 22,900 -1,200 Descending FlightAware ADS-B
Thu 06:34:47 PM 43.6570 -93.0830 349° North 420 483 22,100 -1,765 Descending FlightAware ADS-B
Thu 06:35:32 PM 43.7380 -93.1050 349° North 409 471 20,400 -2,541 Descending FlightAware ADS-B
Thu 06:36:12 PM 43.8110 -93.1250 349° North 401 461 18,500 -2,682 Descending FlightAware ADS-B
Thu 06:36:57 PM 43.8960 -93.1480 349° North 384 442 16,600 -2,541 Descending FlightAware ADS-B
Thu 06:37:37 PM 43.9620 -93.1660 349° North 374 430 14,900 -2,625 Descending FlightAware ADS-B
Thu 06:38:17 PM 44.0310 -93.1840 349° North 364 419 13,100 -2,541 Descending FlightAware ADS-B
Thu 06:39:02 PM 44.1030 -93.2040 349° North 350 403 11,300 -2,188 Descending FlightAware ADS-B
Thu 06:39:42 PM 44.1650 -93.2200 350° North 349 402 10,000 -1,200 Descending FlightAware ADS-B
Thu 06:40:12 PM 44.2130 -93.2320 350° North 343 395 9,900 -86 Descending FlightAware ADS-B
Thu 06:40:52 PM 44.2780 -93.2300 North 343 395 9,900  Level FlightAware ADS-B
Thu 06:41:22 PM 44.3240 -93.2260 North 330 380 9,900  Level FlightAware ADS-B
Thu 06:41:52 PM 44.3670 -93.2220 North 298 343 9,900 -109 Level FlightAware ADS-B
Thu 06:42:17 PM 44.4010 -93.2170 North 273 314 9,800 -450 Descending FlightAware ADS-B
Thu 06:42:32 PM 44.4180 -93.2080 21° North 267 307 9,600 -1,067 Descending FlightAware ADS-B
Thu 06:43:02 PM 44.4490 -93.1820 31° Northeast 261 300 9,000 -1,200 Descending FlightAware ADS-B
Thu 06:43:27 PM 44.4760 -93.1600 30° Northeast 256 295 8,500 -1,200 Descending FlightAware ADS-B
Thu 06:44:02 PM 44.5070 -93.1240 40° Northeast 251 289 7,800 -1,320 Descending FlightAware ADS-B
Thu 06:44:17 PM 44.5210 -93.1070 41° Northeast 251 289 7,400 -1,200 Descending FlightAware ADS-B
Thu 06:44:47 PM 44.5470 -93.0740 42° Northeast 249 287 6,900 -1,091 Descending FlightAware ADS-B
Thu 06:45:12 PM 44.5730 -93.0580 24° Northeast 246 283 6,400 -1,091 Descending FlightAware ADS-B
Thu 06:45:42 PM 44.6040 -93.0430 19° North 241 277 5,900 -800 Descending FlightAware ADS-B
Thu 06:45:57 PM 44.6200 -93.0350 20° North 236 272 5,800 -750 Descending FlightAware ADS-B
Thu 06:46:22 PM 44.6420 -93.0120 37° Northeast 230 265 5,400 -764 Descending FlightAware ADS-B
Thu 06:46:52 PM 44.6630 -92.9810 46° Northeast 208 239 5,100 -873 Descending FlightAware ADS-B
Thu 06:47:17 PM 44.6780 -92.9550 51° Northeast 190 219 4,600 -1,200 Descending FlightAware ADS-B
Thu 06:47:32 PM 44.6860 -92.9420 49° Northeast 187 215 4,300 -1,200 Descending FlightAware ADS-B
Thu 06:47:47 PM 44.6960 -92.9340 30° Northeast 186 214 4,000 -1,200 Descending FlightAware ADS-B
Thu 06:47:52 PM 44.7020 -92.9330 North 187 215 3,900 -200 Descending FlightAware ADS-B
Thu 06:48:17 PM 44.7220 -92.9450 337° Northwest 196 226 3,900  Level FlightAware ADS-B
Thu 06:48:42 PM 44.7410 -92.9610 329° Northwest 197 227 3,900  Level FlightAware ADS-B
Thu 06:49:12 PM 44.7640 -92.9820 327° Northwest 206 237 3,900  Level FlightAware ADS-B
Thu 06:49:37 PM 44.7790 -93.0120 305° West 215 247 3,900 -436 Level FlightAware ADS-B
Thu 06:50:07 PM 44.7950 -93.0480 302° West 218 251 3,500 -1,000 Descending FlightAware ADS-B
Thu 06:50:37 PM 44.8110 -93.0840 302° West 206 237 2,900 -1,091 Descending FlightAware ADS-B
Thu 06:51:02 PM 44.8220 -93.1090 302° West 178 205 2,500 -1,050 Descending FlightAware ADS-B
Thu 06:51:17 PM 44.8290 -93.1230 305° West 161 185 2,200 -933 Descending FlightAware ADS-B
Thu 06:51:47 PM 44.8400 -93.1480 302° West 139 160 1,800 -764 Descending FlightAware ADS-B
Thu 06:52:12 PM 44.8480 -93.1660 302° West 139 160 1,500 -764 Descending FlightAware ADS-B
Thu 06:52:42 PM 44.8590 -93.1900 303° West 148 170 1,100 -873 Descending FlightAware ADS-B
Thu 06:53:07 PM 44.8680 -93.2110 301° West 143 165 700 -960 Descending FlightAware ADS-B

Login

Don't have an account? Register now (free) for customized features, flight alerts, and more!